sensor_id;sensor_type;location;lat;lon;timestamp;temperature;humidity
23010;DHT22;11671;49.990;8.028;2022-07-10T00:01:07;18.60;99.90
23010;DHT22;11671;49.990;8.028;2022-07-10T00:03:32;18.60;99.90
23010;DHT22;11671;49.990;8.028;2022-07-10T00:05:58;18.60;99.90
23010;DHT22;11671;49.990;8.028;2022-07-10T00:08:23;18.60;99.90
23010;DHT22;11671;49.990;8.028;2022-07-10T00:10:51;18.40;99.90
23010;DHT22;11671;49.990;8.028;2022-07-10T00:13:17;18.40;99.90
23010;DHT22;11671;49.990;8.028;2022-07-10T00:15:42;18.40;99.90
23010;DHT22;11671;49.990;8.028;2022-07-10T00:25:28;18.30;99.90
23010;DHT22;11671;49.990;8.028;2022-07-10T00:27:54;18.40;99.90
23010;DHT22;11671;49.990;8.028;2022-07-10T00:30:21;18.30;99.90
23010;DHT22;11671;49.990;8.028;2022-07-10T00:32:47;18.20;99.90
23010;DHT22;11671;49.990;8.028;2022-07-10T00:35:12;18.30;99.90
23010;DHT22;11671;49.990;8.028;2022-07-10T00:37:38;18.30;99.90
23010;DHT22;11671;49.990;8.028;2022-07-10T00:40:03;18.30;99.90
23010;DHT22;11671;49.990;8.028;2022-07-10T00:42:32;18.20;99.90
23010;DHT22;11671;49.990;8.028;2022-07-10T00:44:57;18.20;99.90
23010;DHT22;11671;49.990;8.028;2022-07-10T00:47:23;18.10;99.90
23010;DHT22;11671;49.990;8.028;2022-07-10T00:49:48;18.10;99.90
23010;DHT22;11671;49.990;8.028;2022-07-10T00:52:15;18.10;99.90
23010;DHT22;11671;49.990;8.028;2022-07-10T00:54:42;18.20;99.90
23010;DHT22;11671;49.990;8.028;2022-07-10T00:57:09;18.30;99.90
23010;DHT22;11671;49.990;8.028;2022-07-10T00:59:35;18.20;99.90
23010;DHT22;11671;49.990;8.028;2022-07-10T01:02:02;18.20;99.90
23010;DHT22;11671;49.990;8.028;2022-07-10T01:04:27;18.20;99.90
23010;DHT22;11671;49.990;8.028;2022-07-10T01:06:53;18.20;99.90
23010;DHT22;11671;49.990;8.028;2022-07-10T01:09:18;18.10;99.90
23010;DHT22;11671;49.990;8.028;2022-07-10T01:11:44;18.10;99.90
23010;DHT22;11671;49.990;8.028;2022-07-10T01:14:10;18.10;99.90
23010;DHT22;11671;49.990;8.028;2022-07-10T01:16:35;18.20;99.90
23010;DHT22;11671;49.990;8.028;2022-07-10T01:19:02;18.10;99.90
23010;DHT22;11671;49.990;8.028;2022-07-10T01:21:28;18.10;99.90
23010;DHT22;11671;49.990;8.028;2022-07-10T01:23:54;18.00;99.90
23010;DHT22;11671;49.990;8.028;2022-07-10T01:53:06;17.90;99.90
23010;DHT22;11671;49.990;8.028;2022-07-10T01:55:31;18.00;99.90
23010;DHT22;11671;49.990;8.028;2022-07-10T01:57:57;18.00;99.90
23010;DHT22;11671;49.990;8.028;2022-07-10T02:00:22;17.30;99.90
23010;DHT22;11671;49.990;8.028;2022-07-10T02:02:49;17.90;99.90
23010;DHT22;11671;49.990;8.028;2022-07-10T02:05:35;18.00;99.90
23010;DHT22;11671;49.990;8.028;2022-07-10T02:10:28;17.70;99.90
23010;DHT22;11671;49.990;8.028;2022-07-10T02:12:54;17.50;99.90
23010;DHT22;11671;49.990;8.028;2022-07-10T02:15:21;17.40;99.90
23010;DHT22;11671;49.990;8.028;2022-07-10T03:01:33;16.80;99.90
23010;DHT22;11671;49.990;8.028;2022-07-10T03:03:59;16.90;99.90
23010;DHT22;11671;49.990;8.028;2022-07-10T03:06:26;16.70;99.90
23010;DHT22;11671;49.990;8.028;2022-07-10T03:08:52;16.70;99.90
23010;DHT22;11671;49.990;8.028;2022-07-10T03:11:17;16.60;99.90
23010;DHT22;11671;49.990;8.028;2022-07-10T03:13:43;16.60;99.90
23010;DHT22;11671;49.990;8.028;2022-07-10T03:16:08;16.60;99.90
23010;DHT22;11671;49.990;8.028;2022-07-10T03:18:34;16.60;99.90
23010;DHT22;11671;49.990;8.028;2022-07-10T03:20:59;16.60;99.90
23010;DHT22;11671;49.990;8.028;2022-07-10T03:23:25;16.60;99.90
23010;DHT22;11671;49.990;8.028;2022-07-10T03:25:51;16.60;99.90
23010;DHT22;11671;49.990;8.028;2022-07-10T03:28:16;16.60;99.90
23010;DHT22;11671;49.990;8.028;2022-07-10T03:30:42;16.60;99.90
23010;DHT22;11671;49.990;8.028;2022-07-10T03:33:07;16.50;99.90
23010;DHT22;11671;49.990;8.028;2022-07-10T03:35:33;16.50;99.90
23010;DHT22;11671;49.990;8.028;2022-07-10T03:37:58;16.50;99.90
23010;DHT22;11671;49.990;8.028;2022-07-10T03:40:24;16.50;99.90
23010;DHT22;11671;49.990;8.028;2022-07-10T03:42:51;16.50;99.90
23010;DHT22;11671;49.990;8.028;2022-07-10T03:45:17;16.50;99.90
23010;DHT22;11671;49.990;8.028;2022-07-10T03:47:42;16.50;99.90
23010;DHT22;11671;49.990;8.028;2022-07-10T03:50:08;16.40;99.90
23010;DHT22;11671;49.990;8.028;2022-07-10T03:52:34;16.40;99.90
23010;DHT22;11671;49.990;8.028;2022-07-10T03:55:00;16.40;99.90
23010;DHT22;11671;49.990;8.028;2022-07-10T03:57:26;16.40;99.90
23010;DHT22;11671;49.990;8.028;2022-07-10T04:00:10;16.40;99.90
23010;DHT22;11671;49.990;8.028;2022-07-10T04:02:36;16.40;99.90
23010;DHT22;11671;49.990;8.028;2022-07-10T04:05:04;16.30;99.90
23010;DHT22;11671;49.990;8.028;2022-07-10T04:07:30;16.30;99.90
23010;DHT22;11671;49.990;8.028;2022-07-10T04:09:56;16.30;99.90
23010;DHT22;11671;49.990;8.028;2022-07-10T04:12:21;16.30;99.90
23010;DHT22;11671;49.990;8.028;2022-07-10T04:14:47;16.30;99.90
23010;DHT22;11671;49.990;8.028;2022-07-10T04:17:17;16.30;99.90
23010;DHT22;11671;49.990;8.028;2022-07-10T04:19:42;16.30;99.90
23010;DHT22;11671;49.990;8.028;2022-07-10T04:22:08;16.30;99.90
23010;DHT22;11671;49.990;8.028;2022-07-10T04:24:33;16.30;99.90
23010;DHT22;11671;49.990;8.028;2022-07-10T04:26:59;16.40;99.90
23010;DHT22;11671;49.990;8.028;2022-07-10T04:29:24;16.30;99.90
23010;DHT22;11671;49.990;8.028;2022-07-10T04:31:50;16.30;99.90
23010;DHT22;11671;49.990;8.028;2022-07-10T04:34:15;16.30;99.90
23010;DHT22;11671;49.990;8.028;2022-07-10T04:36:41;16.30;99.90
23010;DHT22;11671;49.990;8.028;2022-07-10T04:39:06;16.30;99.90
23010;DHT22;11671;49.990;8.028;2022-07-10T04:41:32;16.20;99.90
23010;DHT22;11671;49.990;8.028;2022-07-10T04:43:57;16.20;99.90
23010;DHT22;11671;49.990;8.028;2022-07-10T04:46:23;16.20;99.90
23010;DHT22;11671;49.990;8.028;2022-07-10T04:48:48;16.20;99.90
23010;DHT22;11671;49.990;8.028;2022-07-10T04:51:14;16.20;99.90
23010;DHT22;11671;49.990;8.028;2022-07-10T04:53:39;16.20;99.90
23010;DHT22;11671;49.990;8.028;2022-07-10T04:56:05;16.30;99.90
23010;DHT22;11671;49.990;8.028;2022-07-10T04:58:31;16.30;99.90
23010;DHT22;11671;49.990;8.028;2022-07-10T05:00:56;16.40;99.90
23010;DHT22;11671;49.990;8.028;2022-07-10T05:03:22;16.50;99.90
23010;DHT22;11671;49.990;8.028;2022-07-10T05:05:47;16.60;99.90
23010;DHT22;11671;49.990;8.028;2022-07-10T05:08:13;16.80;99.90
23010;DHT22;11671;49.990;8.028;2022-07-10T05:10:38;17.00;99.90
23010;DHT22;11671;49.990;8.028;2022-07-10T05:13:05;17.10;99.90
23010;DHT22;11671;49.990;8.028;2022-07-10T05:15:31;17.20;99.90
23010;DHT22;11671;49.990;8.028;2022-07-10T05:17:57;17.30;99.90
23010;DHT22;11671;49.990;8.028;2022-07-10T05:20:22;17.40;99.90
23010;DHT22;11671;49.990;8.028;2022-07-10T05:22:48;17.50;99.90
23010;DHT22;11671;49.990;8.028;2022-07-10T05:25:13;17.60;99.90
23010;DHT22;11671;49.990;8.028;2022-07-10T05:30:05;18.10;99.90
23010;DHT22;11671;49.990;8.028;2022-07-10T05:32:30;18.50;99.90
23010;DHT22;11671;49.990;8.028;2022-07-10T05:34:59;18.90;99.90
23010;DHT22;11671;49.990;8.028;2022-07-10T05:39:51;20.50;99.90
23010;DHT22;11671;49.990;8.028;2022-07-10T05:42:16;20.10;99.90
23010;DHT22;11671;49.990;8.028;2022-07-10T05:47:08;21.00;99.90
23010;DHT22;11671;49.990;8.028;2022-07-10T05:49:34;22.40;99.90
23010;DHT22;11671;49.990;8.028;2022-07-10T05:51:59;24.20;99.90
23010;DHT22;11671;49.990;8.028;2022-07-10T05:54:24;24.60;99.90
23010;DHT22;11671;49.990;8.028;2022-07-10T05:56:50;26.20;99.90
23010;DHT22;11671;49.990;8.028;2022-07-10T05:59:16;27.50;99.90
23010;DHT22;11671;49.990;8.028;2022-07-10T06:09:01;29.80;97.10
23010;DHT22;11671;49.990;8.028;2022-07-10T06:11:27;29.80;99.80
23010;DHT22;11671;49.990;8.028;2022-07-10T06:13:52;29.60;99.60
23010;DHT22;11671;49.990;8.028;2022-07-10T06:16:18;29.70;97.30
23010;DHT22;11671;49.990;8.028;2022-07-10T06:18:43;28.00;93.30
23010;DHT22;11671;49.990;8.028;2022-07-10T06:21:09;27.90;94.50
23010;DHT22;11671;49.990;8.028;2022-07-10T06:23:34;29.00;93.30
23010;DHT22;11671;49.990;8.028;2022-07-10T06:28:26;29.60;88.80
23010;DHT22;11671;49.990;8.028;2022-07-10T06:30:51;29.40;87.40
23010;DHT22;11671;49.990;8.028;2022-07-10T06:33:17;27.60;90.30
23010;DHT22;11671;49.990;8.028;2022-07-10T06:35:42;26.50;91.80
23010;DHT22;11671;49.990;8.028;2022-07-10T06:38:08;27.00;91.80
23010;DHT22;11671;49.990;8.028;2022-07-10T06:40:37;27.50;91.90
23010;DHT22;11671;49.990;8.028;2022-07-10T06:43:02;28.70;90.60
23010;DHT22;11671;49.990;8.028;2022-07-10T06:45:28;30.40;86.10
23010;DHT22;11671;49.990;8.028;2022-07-10T06:47:53;30.50;85.60
23010;DHT22;11671;49.990;8.028;2022-07-10T06:50:23;29.90;82.70
23010;DHT22;11671;49.990;8.028;2022-07-10T06:52:49;28.30;84.50
23010;DHT22;11671;49.990;8.028;2022-07-10T06:55:15;26.10;90.40
23010;DHT22;11671;49.990;8.028;2022-07-10T06:57:40;25.70;91.50
23010;DHT22;11671;49.990;8.028;2022-07-10T07:00:06;26.40;90.80
23010;DHT22;11671;49.990;8.028;2022-07-10T07:02:32;25.50;91.40
23010;DHT22;11671;49.990;8.028;2022-07-10T07:04:58;25.30;92.60
23010;DHT22;11671;49.990;8.028;2022-07-10T07:07:23;24.20;92.50
23010;DHT22;11671;49.990;8.028;2022-07-10T07:09:49;24.30;92.60
23010;DHT22;11671;49.990;8.028;2022-07-10T07:12:17;24.10;92.20
23010;DHT22;11671;49.990;8.028;2022-07-10T07:14:43;23.40;93.00
23010;DHT22;11671;49.990;8.028;2022-07-10T07:17:09;22.70;94.50
23010;DHT22;11671;49.990;8.028;2022-07-10T07:19:37;22.20;96.20
23010;DHT22;11671;49.990;8.028;2022-07-10T07:22:21;21.70;97.60
23010;DHT22;11671;49.990;8.028;2022-07-10T07:25:06;21.70;97.80
23010;DHT22;11671;49.990;8.028;2022-07-10T07:27:32;21.80;98.70
23010;DHT22;11671;49.990;8.028;2022-07-10T07:30:00;21.30;99.90
23010;DHT22;11671;49.990;8.028;2022-07-10T07:32:26;21.10;99.90
23010;DHT22;11671;49.990;8.028;2022-07-10T07:34:51;21.10;99.90
23010;DHT22;11671;49.990;8.028;2022-07-10T07:37:17;20.80;99.90
23010;DHT22;11671;49.990;8.028;2022-07-10T07:39:42;20.60;99.90
23010;DHT22;11671;49.990;8.028;2022-07-10T07:42:08;20.50;99.90
23010;DHT22;11671;49.990;8.028;2022-07-10T07:44:33;20.60;99.90
23010;DHT22;11671;49.990;8.028;2022-07-10T07:46:59;20.50;99.90
23010;DHT22;11671;49.990;8.028;2022-07-10T07:49:24;20.60;99.90
23010;DHT22;11671;49.990;8.028;2022-07-10T07:51:50;21.50;99.90
23010;DHT22;11671;49.990;8.028;2022-07-10T07:54:15;22.70;99.90
23010;DHT22;11671;49.990;8.028;2022-07-10T07:56:41;23.50;99.90
23010;DHT22;11671;49.990;8.028;2022-07-10T07:59:06;23.80;98.90
23010;DHT22;11671;49.990;8.028;2022-07-10T08:01:32;23.60;97.70
23010;DHT22;11671;49.990;8.028;2022-07-10T08:03:57;22.90;98.70
23010;DHT22;11671;49.990;8.028;2022-07-10T08:06:23;22.90;99.60
23010;DHT22;11671;49.990;8.028;2022-07-10T08:08:48;22.70;99.90
23010;DHT22;11671;49.990;8.028;2022-07-10T08:11:14;22.50;99.90
23010;DHT22;11671;49.990;8.028;2022-07-10T08:13:39;22.20;99.90
23010;DHT22;11671;49.990;8.028;2022-07-10T08:18:30;21.90;99.90
23010;DHT22;11671;49.990;8.028;2022-07-10T08:20:56;21.90;99.90
23010;DHT22;11671;49.990;8.028;2022-07-10T08:23:21;22.00;99.90
23010;DHT22;11671;49.990;8.028;2022-07-10T08:25:47;22.90;99.90
23010;DHT22;11671;49.990;8.028;2022-07-10T08:28:12;23.60;99.90
23010;DHT22;11671;49.990;8.028;2022-07-10T08:30:38;24.40;99.90
23010;DHT22;11671;49.990;8.028;2022-07-10T08:33:03;24.10;99.80
23010;DHT22;11671;49.990;8.028;2022-07-10T08:35:29;23.60;99.90
23010;DHT22;11671;49.990;8.028;2022-07-10T08:37:55;23.60;99.90
23010;DHT22;11671;49.990;8.028;2022-07-10T08:40:21;24.20;99.90
23010;DHT22;11671;49.990;8.028;2022-07-10T08:45:13;25.20;98.20
23010;DHT22;11671;49.990;8.028;2022-07-10T08:47:39;24.60;99.10
23010;DHT22;11671;49.990;8.028;2022-07-10T08:50:15;23.90;99.80
23010;DHT22;11671;49.990;8.028;2022-07-10T08:53:28;23.20;99.90
23010;DHT22;11671;49.990;8.028;2022-07-10T08:55:27;22.80;99.90
23010;DHT22;11671;49.990;8.028;2022-07-10T08:57:53;22.30;99.90
23010;DHT22;11671;49.990;8.028;2022-07-10T09:00:20;22.20;99.90
23010;DHT22;11671;49.990;8.028;2022-07-10T09:02:45;22.60;99.90
23010;DHT22;11671;49.990;8.028;2022-07-10T09:05:11;23.00;99.90
23010;DHT22;11671;49.990;8.028;2022-07-10T09:07:36;23.40;99.90
23010;DHT22;11671;49.990;8.028;2022-07-10T09:10:08;23.40;99.90
23010;DHT22;11671;49.990;8.028;2022-07-10T09:12:56;23.10;99.90
23010;DHT22;11671;49.990;8.028;2022-07-10T09:15:21;23.40;99.90
23010;DHT22;11671;49.990;8.028;2022-07-10T09:17:56;23.90;99.90
23010;DHT22;11671;49.990;8.028;2022-07-10T09:20:40;24.50;99.00
23010;DHT22;11671;49.990;8.028;2022-07-10T09:23:14;24.50;98.60
23010;DHT22;11671;49.990;8.028;2022-07-10T09:25:40;24.40;99.40
23010;DHT22;11671;49.990;8.028;2022-07-10T09:28:06;24.10;99.90
23010;DHT22;11671;49.990;8.028;2022-07-10T09:30:32;23.80;99.90
23010;DHT22;11671;49.990;8.028;2022-07-10T09:33:14;23.30;99.90
23010;DHT22;11671;49.990;8.028;2022-07-10T09:35:53;23.50;99.90
23010;DHT22;11671;49.990;8.028;2022-07-10T09:43:43;23.90;99.20
23010;DHT22;11671;49.990;8.028;2022-07-10T09:46:09;24.00;99.00
23010;DHT22;11671;49.990;8.028;2022-07-10T09:48:34;24.20;98.80
23010;DHT22;11671;49.990;8.028;2022-07-10T09:51:00;24.20;98.60
23010;DHT22;11671;49.990;8.028;2022-07-10T09:53:26;24.10;98.80
23010;DHT22;11671;49.990;8.028;2022-07-10T09:55:53;24.60;98.50
23010;DHT22;11671;49.990;8.028;2022-07-10T09:58:20;24.80;97.60
23010;DHT22;11671;49.990;8.028;2022-07-10T10:00:49;24.40;97.50
23010;DHT22;11671;49.990;8.028;2022-07-10T10:03:15;24.40;98.00
23010;DHT22;11671;49.990;8.028;2022-07-10T10:08:12;24.40;98.60
23010;DHT22;11671;49.990;8.028;2022-07-10T10:10:45;24.80;97.90
23010;DHT22;11671;49.990;8.028;2022-07-10T10:13:11;25.00;98.30
23010;DHT22;11671;49.990;8.028;2022-07-10T10:15:37;25.10;98.50
23010;DHT22;11671;49.990;8.028;2022-07-10T10:18:03;25.20;97.60
23010;DHT22;11671;49.990;8.028;2022-07-10T10:20:30;24.80;97.70
23010;DHT22;11671;49.990;8.028;2022-07-10T10:23:06;24.70;98.20
23010;DHT22;11671;49.990;8.028;2022-07-10T10:25:34;24.80;98.70
23010;DHT22;11671;49.990;8.028;2022-07-10T10:28:01;24.80;98.20
23010;DHT22;11671;49.990;8.028;2022-07-10T10:30:27;24.70;97.20
23010;DHT22;11671;49.990;8.028;2022-07-10T10:32:53;24.70;96.90
23010;DHT22;11671;49.990;8.028;2022-07-10T10:38:14;25.00;96.90
23010;DHT22;11671;49.990;8.028;2022-07-10T10:40:40;25.20;96.10
23010;DHT22;11671;49.990;8.028;2022-07-10T10:43:22;25.20;95.40
23010;DHT22;11671;49.990;8.028;2022-07-10T10:45:51;25.40;95.50
23010;DHT22;11671;49.990;8.028;2022-07-10T10:48:19;25.80;95.10
23010;DHT22;11671;49.990;8.028;2022-07-10T10:50:52;25.70;94.90
23010;DHT22;11671;49.990;8.028;2022-07-10T10:56:20;25.80;94.90
23010;DHT22;11671;49.990;8.028;2022-07-10T11:09:29;25.70;95.10
23010;DHT22;11671;49.990;8.028;2022-07-10T11:12:02;25.90;95.60
23010;DHT22;11671;49.990;8.028;2022-07-10T11:14:29;26.00;94.40
23010;DHT22;11671;49.990;8.028;2022-07-10T11:19:24;26.20;99.90
23010;DHT22;11671;49.990;8.028;2022-07-10T11:22:02;26.60;94.30
23010;DHT22;11671;49.990;8.028;2022-07-10T11:27:47;26.60;94.10
23010;DHT22;11671;49.990;8.028;2022-07-10T11:30:13;26.60;94.10
23010;DHT22;11671;49.990;8.028;2022-07-10T11:32:39;26.30;93.90
23010;DHT22;11671;49.990;8.028;2022-07-10T11:35:14;26.30;94.70
23010;DHT22;11671;49.990;8.028;2022-07-10T11:37:52;26.50;94.70
23010;DHT22;11671;49.990;8.028;2022-07-10T11:40:18;26.60;94.00
23010;DHT22;11671;49.990;8.028;2022-07-10T11:42:51;26.50;94.20
23010;DHT22;11671;49.990;8.028;2022-07-10T11:45:24;26.20;94.20
23010;DHT22;11671;49.990;8.028;2022-07-10T11:47:49;26.40;94.60
23010;DHT22;11671;49.990;8.028;2022-07-10T11:50:15;26.40;94.50
23010;DHT22;11671;49.990;8.028;2022-07-10T11:52:41;26.40;94.50
23010;DHT22;11671;49.990;8.028;2022-07-10T11:55:22;26.50;94.40
23010;DHT22;11671;49.990;8.028;2022-07-10T11:57:47;26.40;95.00
23010;DHT22;11671;49.990;8.028;2022-07-10T12:00:20;25.90;94.60
23010;DHT22;11671;49.990;8.028;2022-07-10T12:02:46;26.00;95.30
23010;DHT22;11671;49.990;8.028;2022-07-10T12:07:56;26.10;94.50
23010;DHT22;11671;49.990;8.028;2022-07-10T12:10:25;26.10;95.10
23010;DHT22;11671;49.990;8.028;2022-07-10T12:12:51;25.90;95.40
23010;DHT22;11671;49.990;8.028;2022-07-10T12:15:32;25.80;95.90
23010;DHT22;11671;49.990;8.028;2022-07-10T12:17:58;26.00;95.70
23010;DHT22;11671;49.990;8.028;2022-07-10T12:20:23;26.00;95.00
23010;DHT22;11671;49.990;8.028;2022-07-10T12:22:49;26.20;95.40
23010;DHT22;11671;49.990;8.028;2022-07-10T12:25:14;26.20;94.90
23010;DHT22;11671;49.990;8.028;2022-07-10T12:27:41;26.50;95.50
23010;DHT22;11671;49.990;8.028;2022-07-10T12:30:06;26.60;95.20
23010;DHT22;11671;49.990;8.028;2022-07-10T12:32:32;26.70;94.30
23010;DHT22;11671;49.990;8.028;2022-07-10T12:34:58;26.40;94.90
23010;DHT22;11671;49.990;8.028;2022-07-10T12:37:23;26.10;95.70
23010;DHT22;11671;49.990;8.028;2022-07-10T12:39:50;25.80;96.10
23010;DHT22;11671;49.990;8.028;2022-07-10T12:42:24;25.60;96.90
23010;DHT22;11671;49.990;8.028;2022-07-10T12:44:50;25.60;96.90
23010;DHT22;11671;49.990;8.028;2022-07-10T12:47:16;25.20;97.30
23010;DHT22;11671;49.990;8.028;2022-07-10T12:52:21;25.40;97.30
23010;DHT22;11671;49.990;8.028;2022-07-10T12:54:47;25.50;97.60
23010;DHT22;11671;49.990;8.028;2022-07-10T12:57:12;25.40;97.60
23010;DHT22;11671;49.990;8.028;2022-07-10T12:59:38;25.40;96.80
23010;DHT22;11671;49.990;8.028;2022-07-10T13:02:17;25.40;96.50
23010;DHT22;11671;49.990;8.028;2022-07-10T13:04:51;25.30;97.40
23010;DHT22;11671;49.990;8.028;2022-07-10T13:07:17;25.00;97.50
23010;DHT22;11671;49.990;8.028;2022-07-10T13:09:43;25.00;97.90
23010;DHT22;11671;49.990;8.028;2022-07-10T13:12:09;25.30;98.20
23010;DHT22;11671;49.990;8.028;2022-07-10T13:14:35;25.30;98.60
23010;DHT22;11671;49.990;8.028;2022-07-10T13:17:01;25.10;98.20
23010;DHT22;11671;49.990;8.028;2022-07-10T13:19:26;25.10;99.00
23010;DHT22;11671;49.990;8.028;2022-07-10T13:21:52;25.20;99.10
23010;DHT22;11671;49.990;8.028;2022-07-10T13:24:17;25.30;98.50
23010;DHT22;11671;49.990;8.028;2022-07-10T13:26:43;25.20;99.20
23010;DHT22;11671;49.990;8.028;2022-07-10T13:29:09;25.30;98.70
23010;DHT22;11671;49.990;8.028;2022-07-10T13:31:34;25.30;99.00
23010;DHT22;11671;49.990;8.028;2022-07-10T13:34:00;25.40;98.90
23010;DHT22;11671;49.990;8.028;2022-07-10T13:36:25;25.60;99.70
23010;DHT22;11671;49.990;8.028;2022-07-10T13:38:51;25.80;99.40
23010;DHT22;11671;49.990;8.028;2022-07-10T13:41:18;25.80;98.20
23010;DHT22;11671;49.990;8.028;2022-07-10T13:43:43;25.70;98.30
23010;DHT22;11671;49.990;8.028;2022-07-10T13:46:09;25.90;98.80
23010;DHT22;11671;49.990;8.028;2022-07-10T13:48:34;25.90;98.60
23010;DHT22;11671;49.990;8.028;2022-07-10T13:51:00;26.10;98.50
23010;DHT22;11671;49.990;8.028;2022-07-10T13:53:26;26.30;98.70
23010;DHT22;11671;49.990;8.028;2022-07-10T13:55:52;26.20;98.30
23010;DHT22;11671;49.990;8.028;2022-07-10T13:58:18;26.00;98.40
23010;DHT22;11671;49.990;8.028;2022-07-10T14:00:45;26.00;98.50
23010;DHT22;11671;49.990;8.028;2022-07-10T14:03:10;26.00;98.60
23010;DHT22;11671;49.990;8.028;2022-07-10T14:05:36;26.20;98.20
23010;DHT22;11671;49.990;8.028;2022-07-10T14:08:01;26.20;97.90
23010;DHT22;11671;49.990;8.028;2022-07-10T14:10:28;26.10;98.10
23010;DHT22;11671;49.990;8.028;2022-07-10T14:12:53;26.00;98.70
23010;DHT22;11671;49.990;8.028;2022-07-10T14:15:19;26.20;99.20
23010;DHT22;11671;49.990;8.028;2022-07-10T14:17:45;26.40;99.10
23010;DHT22;11671;49.990;8.028;2022-07-10T14:20:11;26.00;98.60
23010;DHT22;11671;49.990;8.028;2022-07-10T14:22:37;25.80;99.10
23010;DHT22;11671;49.990;8.028;2022-07-10T14:25:03;26.00;99.50
23010;DHT22;11671;49.990;8.028;2022-07-10T14:27:29;26.20;99.40
23010;DHT22;11671;49.990;8.028;2022-07-10T14:29:55;26.20;99.10
23010;DHT22;11671;49.990;8.028;2022-07-10T14:32:21;26.20;99.20
23010;DHT22;11671;49.990;8.028;2022-07-10T14:34:46;26.10;99.50
23010;DHT22;11671;49.990;8.028;2022-07-10T14:37:12;26.00;99.60
23010;DHT22;11671;49.990;8.028;2022-07-10T14:39:37;26.10;99.80
23010;DHT22;11671;49.990;8.028;2022-07-10T14:42:03;26.10;99.60
23010;DHT22;11671;49.990;8.028;2022-07-10T14:44:30;26.20;99.30
23010;DHT22;11671;49.990;8.028;2022-07-10T14:46:56;26.20;98.70
23010;DHT22;11671;49.990;8.028;2022-07-10T14:49:21;25.90;99.90
23010;DHT22;11671;49.990;8.028;2022-07-10T14:51:47;25.50;99.90
23010;DHT22;11671;49.990;8.028;2022-07-10T14:54:13;25.60;99.90
23010;DHT22;11671;49.990;8.028;2022-07-10T14:56:38;25.40;99.90
23010;DHT22;11671;49.990;8.028;2022-07-10T14:59:04;25.30;99.90
23010;DHT22;11671;49.990;8.028;2022-07-10T15:01:29;25.00;99.90
23010;DHT22;11671;49.990;8.028;2022-07-10T15:03:55;25.20;99.90
23010;DHT22;11671;49.990;8.028;2022-07-10T15:06:23;25.40;99.90
23010;DHT22;11671;49.990;8.028;2022-07-10T15:08:48;25.70;99.90
23010;DHT22;11671;49.990;8.028;2022-07-10T15:11:19;25.80;99.90
23010;DHT22;11671;49.990;8.028;2022-07-10T15:13:48;25.60;99.90
23010;DHT22;11671;49.990;8.028;2022-07-10T15:16:16;25.10;99.90
23010;DHT22;11671;49.990;8.028;2022-07-10T15:18:42;24.70;99.90
23010;DHT22;11671;49.990;8.028;2022-07-10T15:23:34;24.80;99.90
23010;DHT22;11671;49.990;8.028;2022-07-10T15:25:59;25.10;99.90
23010;DHT22;11671;49.990;8.028;2022-07-10T15:28:26;24.60;99.90
23010;DHT22;11671;49.990;8.028;2022-07-10T15:30:51;24.70;99.90
23010;DHT22;11671;49.990;8.028;2022-07-10T15:33:17;24.80;99.90
23010;DHT22;11671;49.990;8.028;2022-07-10T15:35:42;25.00;99.90
23010;DHT22;11671;49.990;8.028;2022-07-10T15:38:08;25.10;99.90
23010;DHT22;11671;49.990;8.028;2022-07-10T15:40:36;25.20;99.90
23010;DHT22;11671;49.990;8.028;2022-07-10T15:43:01;25.20;99.90
23010;DHT22;11671;49.990;8.028;2022-07-10T15:45:27;25.20;99.90
23010;DHT22;11671;49.990;8.028;2022-07-10T15:47:53;24.80;99.90
23010;DHT22;11671;49.990;8.028;2022-07-10T15:50:18;24.80;99.90
23010;DHT22;11671;49.990;8.028;2022-07-10T15:52:44;24.80;99.90
23010;DHT22;11671;49.990;8.028;2022-07-10T15:55:11;24.60;99.90
23010;DHT22;11671;49.990;8.028;2022-07-10T15:57:36;24.60;99.90
23010;DHT22;11671;49.990;8.028;2022-07-10T16:00:03;24.50;99.90
23010;DHT22;11671;49.990;8.028;2022-07-10T16:02:29;24.50;99.90
23010;DHT22;11671;49.990;8.028;2022-07-10T16:04:54;24.40;99.90
23010;DHT22;11671;49.990;8.028;2022-07-10T16:07:20;25.20;99.90
23010;DHT22;11671;49.990;8.028;2022-07-10T16:09:45;24.10;99.90
23010;DHT22;11671;49.990;8.028;2022-07-10T16:12:11;24.00;99.90
23010;DHT22;11671;49.990;8.028;2022-07-10T16:14:36;23.80;99.90
23010;DHT22;11671;49.990;8.028;2022-07-10T16:17:02;23.70;99.90
23010;DHT22;11671;49.990;8.028;2022-07-10T16:19:27;23.60;99.90
23010;DHT22;11671;49.990;8.028;2022-07-10T16:21:53;23.90;99.90
23010;DHT22;11671;49.990;8.028;2022-07-10T16:24:19;23.70;99.90
23010;DHT22;11671;49.990;8.028;2022-07-10T16:26:45;23.60;99.90
23010;DHT22;11671;49.990;8.028;2022-07-10T16:29:10;23.40;99.90
23010;DHT22;11671;49.990;8.028;2022-07-10T16:31:36;23.30;99.90
23010;DHT22;11671;49.990;8.028;2022-07-10T16:34:08;23.20;99.90
23010;DHT22;11671;49.990;8.028;2022-07-10T16:36:35;23.20;99.90
23010;DHT22;11671;49.990;8.028;2022-07-10T16:39:01;23.20;99.90
23010;DHT22;11671;49.990;8.028;2022-07-10T16:41:26;23.10;99.90
23010;DHT22;11671;49.990;8.028;2022-07-10T16:43:52;23.10;99.90
23010;DHT22;11671;49.990;8.028;2022-07-10T16:46:18;23.00;99.90
23010;DHT22;11671;49.990;8.028;2022-07-10T16:48:44;23.10;99.90
23010;DHT22;11671;49.990;8.028;2022-07-10T16:51:10;23.10;99.90
23010;DHT22;11671;49.990;8.028;2022-07-10T16:53:36;23.00;99.90
23010;DHT22;11671;49.990;8.028;2022-07-10T16:56:03;22.90;99.90
23010;DHT22;11671;49.990;8.028;2022-07-10T16:58:28;22.90;99.90
23010;DHT22;11671;49.990;8.028;2022-07-10T17:00:54;22.80;99.90
23010;DHT22;11671;49.990;8.028;2022-07-10T17:03:20;22.60;99.90
23010;DHT22;11671;49.990;8.028;2022-07-10T17:05:45;22.60;99.90
23010;DHT22;11671;49.990;8.028;2022-07-10T17:08:11;22.60;99.90
23010;DHT22;11671;49.990;8.028;2022-07-10T17:10:39;22.40;99.90
23010;DHT22;11671;49.990;8.028;2022-07-10T17:13:04;22.40;99.90
23010;DHT22;11671;49.990;8.028;2022-07-10T17:15:30;22.40;99.90
23010;DHT22;11671;49.990;8.028;2022-07-10T17:17:55;22.80;99.90
23010;DHT22;11671;49.990;8.028;2022-07-10T17:20:21;22.80;99.90
23010;DHT22;11671;49.990;8.028;2022-07-10T17:22:50;22.80;99.90
23010;DHT22;11671;49.990;8.028;2022-07-10T17:25:16;22.80;99.90
23010;DHT22;11671;49.990;8.028;2022-07-10T17:27:42;22.50;99.90
23010;DHT22;11671;49.990;8.028;2022-07-10T17:30:07;22.40;99.90
23010;DHT22;11671;49.990;8.028;2022-07-10T17:32:35;22.40;99.90
23010;DHT22;11671;49.990;8.028;2022-07-10T17:35:00;22.50;99.90
23010;DHT22;11671;49.990;8.028;2022-07-10T17:37:26;22.40;99.90
23010;DHT22;11671;49.990;8.028;2022-07-10T17:39:51;22.30;99.90
23010;DHT22;11671;49.990;8.028;2022-07-10T17:42:17;22.00;99.90
23010;DHT22;11671;49.990;8.028;2022-07-10T17:44:42;21.90;99.90
23010;DHT22;11671;49.990;8.028;2022-07-10T17:47:08;21.90;99.90